»·PEaware :: SAS269 KSFO-KGCN

SAS269 :: KSFO-KGCN

FLIGHT INFORMATION

Flight Status: Arrived
Operator:
SAS
More flights by this operator :: More flights under this callsign
Pilot: Anonymous 9219 (9219)
Aircraft: AIRBUS A320
(A320)
More flights by this aircraft type
Origin: KSFO San Francisco Intl
United States
Destination: KGCN Grand Canyon Natl Park
United States
More flights between these airports :: More routes between these airports
Route: SSTIK3 NTELL Q158 JEDNA PGS V208 GCN
File this flight plan on PilotEdge
Remarks:
Altitude:
(Current/Filed)
35,000ft
Speed:
(Current/Filed)
440kts
Departed: 04-Dec-15 08:55 PM
Arrived: 04-Dec-15 10:15 PM
Distance/Time
Traveled:
502nm/1:20
Distance/Time
To Go:
Arrived

Flight Plot

Page will automatically refresh every two minutes.


Map Options




Map Legend


Flown Route
Filed Route
Departure Airport
Arrival Airport
Navaid (VOR, NDB)
Fix

Horizontal Profiles

Position Reports

Time Latitude Longitude Heading Altitude Ground
Speed
04-Dec-15 20:11 37.618786 -122.385192 155 21ft 0kts
04-Dec-15 20:12 37.618786 -122.385192 155 21ft 0kts
04-Dec-15 20:13 37.618786 -122.385192 155 21ft 0kts
04-Dec-15 20:14 37.618786 -122.385192 155 21ft 0kts
04-Dec-15 20:15 37.618786 -122.385192 155 21ft 0kts
04-Dec-15 20:16 37.618786 -122.385192 155 21ft 0kts
04-Dec-15 20:17 37.618786 -122.385192 155 21ft 0kts
04-Dec-15 20:18 37.618786 -122.385192 155 21ft 0kts
04-Dec-15 20:19 37.618786 -122.385192 155 21ft 0kts
04-Dec-15 20:20 37.618786 -122.385192 155 21ft 0kts
04-Dec-15 20:21 37.618786 -122.385192 155 21ft 0kts
04-Dec-15 20:22 37.618786 -122.385192 155 21ft 0kts
04-Dec-15 20:23 37.618786 -122.385192 155 21ft 0kts
04-Dec-15 20:24 37.618786 -122.385192 155 21ft 0kts
04-Dec-15 20:25 37.618786 -122.385192 155 21ft 0kts
04-Dec-15 20:26 37.618786 -122.385192 155 21ft 0kts
04-Dec-15 20:27 37.618786 -122.385192 155 21ft 0kts
04-Dec-15 20:28 37.618786 -122.385192 155 21ft 0kts
04-Dec-15 20:29 37.618786 -122.385192 155 21ft 0kts
04-Dec-15 20:30 37.618786 -122.385192 155 21ft 0kts
04-Dec-15 20:31 37.618786 -122.385192 155 21ft 0kts
04-Dec-15 20:32 37.618786 -122.385192 155 21ft 0kts
04-Dec-15 20:33 37.618786 -122.385192 155 21ft 0kts
04-Dec-15 20:34 37.618786 -122.385192 155 21ft 0kts
04-Dec-15 20:35 37.618786 -122.385192 155 21ft 0kts
04-Dec-15 20:36 37.618786 -122.385192 155 21ft 0kts
04-Dec-15 20:37 37.618786 -122.385192 155 21ft 0kts
04-Dec-15 20:38 37.618786 -122.385192 155 21ft 0kts
04-Dec-15 20:39 37.618786 -122.385192 155 21ft 0kts
04-Dec-15 20:40 37.619093 -122.385397 138 21ft 1kts
04-Dec-15 20:41 37.619324 -122.385757 86 21ft 0kts
04-Dec-15 20:42 37.619410 -122.385684 23 21ft 1kts
04-Dec-15 20:43 37.620140 -122.385242 27 21ft 0kts
04-Dec-15 20:44 37.620142 -122.385241 27 21ft 0kts
04-Dec-15 20:45 37.620281 -122.385151 27 21ft 5kts
04-Dec-15 20:46 37.620756 -122.382958 93 22ft 11kts
04-Dec-15 20:47 37.619092 -122.379389 144 22ft 12kts
04-Dec-15 20:48 37.614593 -122.380071 207 21ft 18kts
04-Dec-15 20:49 37.611014 -122.382432 207 22ft 11kts
04-Dec-15 20:50 37.608488 -122.383758 132 21ft 0kts
04-Dec-15 20:51 37.608465 -122.383724 131 21ft 2kts
04-Dec-15 20:52 37.620714 -122.374437 27 72ft 154kts
04-Dec-15 20:53 37.660262 -122.355664 339 2175ft 192kts
04-Dec-15 20:54 37.645756 -122.410315 182 4034ft 266kts
04-Dec-15 20:55 37.573157 -122.428975 202 7376ft 281kts
04-Dec-15 20:56 37.498480 -122.459905 169 10020ft 302kts
04-Dec-15 20:57 37.437413 -122.382207 126 11517ft 368kts
04-Dec-15 20:58 37.397608 -122.266080 102 14409ft 384kts
04-Dec-15 20:59 37.370545 -122.132525 101 17043ft 404kts
04-Dec-15 21:00 37.342831 -121.993982 100 19267ft 421kts
04-Dec-15 21:01 37.314764 -121.853328 100 21045ft 435kts
04-Dec-15 21:02 37.284646 -121.703651 99 22823ft 450kts
04-Dec-15 21:03 37.253227 -121.549588 98 24685ft 462kts
04-Dec-15 21:04 37.220706 -121.391348 98 26460ft 475kts
04-Dec-15 21:05 37.187113 -121.229105 98 27910ft 489kts
04-Dec-15 21:06 37.152264 -121.062091 98 29239ft 499kts
04-Dec-15 21:07 37.117173 -120.895234 98 30692ft 498kts
04-Dec-15 21:08 37.082289 -120.728502 98 31923ft 498kts
04-Dec-15 21:09 37.046715 -120.561784 97 32901ft 500kts
04-Dec-15 21:10 37.010486 -120.393290 96 33787ft 501kts
04-Dec-15 21:11 36.974158 -120.225610 96 34660ft 500kts
04-Dec-15 21:12 36.937625 -120.058219 96 35293ft 498kts
04-Dec-15 21:13 36.902010 -119.893141 93 35292ft 491kts
04-Dec-15 21:14 36.885401 -119.730170 88 35292ft 485kts
04-Dec-15 21:15 36.870714 -119.572370 88 35292ft 484kts
04-Dec-15 21:16 36.855031 -119.405694 88 35292ft 484kts
04-Dec-15 21:17 36.840129 -119.249637 88 35293ft 484kts
04-Dec-15 21:18 36.824237 -119.085588 88 35293ft 484kts
04-Dec-15 21:19 36.808247 -118.922892 87 35268ft 488kts
04-Dec-15 21:20 36.792116 -118.757207 87 35240ft 494kts
04-Dec-15 21:21 36.777459 -118.615099 88 35240ft 495kts
04-Dec-15 21:22 36.759271 -118.445364 87 35239ft 495kts
04-Dec-15 21:23 36.741038 -118.274984 87 35239ft 495kts
04-Dec-15 21:24 36.722617 -118.105137 87 35240ft 495kts
04-Dec-15 21:25 36.703892 -117.934553 89 35231ft 499kts
04-Dec-15 21:26 36.685381 -117.765009 92 35216ft 500kts
04-Dec-15 21:27 36.667045 -117.602362 93 35211ft 499kts
04-Dec-15 21:28 36.647516 -117.431590 93 35212ft 499kts
04-Dec-15 21:29 36.627688 -117.260363 93 35212ft 499kts
04-Dec-15 21:30 36.607464 -117.089908 94 35213ft 500kts
04-Dec-15 21:31 36.587461 -116.924184 94 35213ft 505kts
04-Dec-15 21:32 36.567525 -116.755126 97 35210ft 507kts
04-Dec-15 21:33 36.531075 -116.585548 104 35213ft 510kts
04-Dec-15 21:34 36.493718 -116.415344 104 35211ft 510kts
04-Dec-15 21:35 36.456291 -116.246186 104 35212ft 510kts
04-Dec-15 21:36 36.418911 -116.080136 104 35211ft 510kts
04-Dec-15 21:37 36.380888 -115.911190 104 35212ft 510kts
04-Dec-15 21:38 36.343736 -115.745243 106 35209ft 511kts
04-Dec-15 21:39 36.298714 -115.579537 114 35206ft 507kts
04-Dec-15 21:40 36.246599 -115.417206 114 35197ft 507kts
04-Dec-15 21:41 36.194360 -115.255287 114 35185ft 506kts
04-Dec-15 21:42 36.142066 -115.094074 114 35197ft 505kts
04-Dec-15 21:43 36.089352 -114.932454 114 35200ft 506kts
04-Dec-15 21:44 36.037790 -114.773846 115 35184ft 507kts
04-Dec-15 21:45 35.984787 -114.612966 115 35183ft 507kts
04-Dec-15 21:46 35.931302 -114.451606 115 35188ft 507kts
04-Dec-15 21:47 35.877261 -114.289417 115 33356ft 508kts
04-Dec-15 21:48 35.823528 -114.129020 116 29935ft 511kts
04-Dec-15 21:49 35.770096 -113.970373 117 27290ft 491kts
04-Dec-15 21:50 35.719204 -113.818910 117 26204ft 482kts
04-Dec-15 21:51 35.667424 -113.666502 118 26209ft 482kts
04-Dec-15 21:52 35.637596 -113.508837 74 26213ft 498kts
04-Dec-15 21:53 35.675723 -113.345975 74 26212ft 498kts
04-Dec-15 21:54 35.713021 -113.181778 74 26232ft 500kts
04-Dec-15 21:55 35.750785 -113.016471 74 26252ft 500kts
04-Dec-15 21:56 35.787178 -112.856861 74 23826ft 482kts
04-Dec-15 21:57 35.821770 -112.704398 75 20582ft 455kts
04-Dec-15 21:58 35.822543 -112.560754 110 16415ft 411kts
04-Dec-15 21:59 35.790206 -112.431311 110 12520ft 383kts
04-Dec-15 22:00 35.768791 -112.312784 73 10134ft 328kts
04-Dec-15 22:01 35.808969 -112.221883 54 8972ft 265kts
04-Dec-15 22:02 35.864291 -112.205610 353 8308ft 178kts
04-Dec-15 22:03 35.908372 -112.193507 42 7133ft 168kts
04-Dec-15 22:04 35.944042 -112.155617 40 6908ft 196kts
04-Dec-15 22:05 35.993764 -112.118653 344 9014ft 200kts
04-Dec-15 22:06 35.997459 -112.161327 231 9925ft 182kts
04-Dec-15 22:07 35.960923 -112.199543 219 9852ft 166kts
04-Dec-15 22:08 35.922020 -112.233516 222 8288ft 174kts
04-Dec-15 22:09 35.890091 -112.229289 60 8533ft 173kts
04-Dec-15 22:10 35.918307 -112.182356 31 7061ft 156kts
04-Dec-15 22:11 35.949713 -112.149740 39 6614ft 74kts
04-Dec-15 22:12 35.951841 -112.145752 59 6614ft 10kts
04-Dec-15 22:13 35.956261 -112.140973 41 6613ft 23kts
04-Dec-15 22:14 35.956913 -112.139690 313 6613ft 7kts
04-Dec-15 22:15 35.956861 -112.139622 313 6613ft 0kts
04-Dec-15 22:16 35.956861 -112.139622 313 6613ft 0kts
04-Dec-15 22:17 35.956861 -112.139622 313 6613ft 0kts
04-Dec-15 22:18 35.956861 -112.139622 313 6613ft 0kts
04-Dec-15 22:19 35.956861 -112.139622 313 6613ft 0kts
04-Dec-15 22:20 35.956861 -112.139622 313 6613ft 0kts
04-Dec-15 22:21 35.956861 -112.139622 313 6613ft 0kts
04-Dec-15 22:22 35.956861 -112.139622 313 6613ft 0kts
04-Dec-15 22:23 35.956861 -112.139622 313 6613ft 0kts
04-Dec-15 22:24 35.956861 -112.139622 313 6613ft 0kts
04-Dec-15 22:25 35.956861 -112.139622 313 6613ft 0kts
04-Dec-15 22:26 35.956861 -112.139622 313 6613ft 0kts

Navigation Log

Ident Type
1. KSFO Airport
2. PGS Navaid
3. GUCRU Fix
4. GCN Navaid
5. KGCN Airport